sensor_id;sensor_type;location;lat;lon;timestamp;P1;durP1;ratioP1;P2;durP2;ratioP2
61200;SDS011;47065;52.898;6.992;2022-11-30T00:01:55;84.75;;;32.22;;
61200;SDS011;47065;52.898;6.992;2022-11-30T00:04:20;92.30;;;31.83;;
61200;SDS011;47065;52.898;6.992;2022-11-30T00:06:46;97.35;;;34.33;;
61200;SDS011;47065;52.898;6.992;2022-11-30T00:09:11;95.20;;;34.15;;
61200;SDS011;47065;52.898;6.992;2022-11-30T00:11:37;94.47;;;33.95;;
61200;SDS011;47065;52.898;6.992;2022-11-30T00:14:03;91.63;;;34.72;;
61200;SDS011;47065;52.898;6.992;2022-11-30T00:16:28;81.93;;;32.22;;
61200;SDS011;47065;52.898;6.992;2022-11-30T00:18:54;94.65;;;34.15;;
61200;SDS011;47065;52.898;6.992;2022-11-30T00:21:19;86.22;;;33.85;;
61200;SDS011;47065;52.898;6.992;2022-11-30T00:23:45;92.63;;;33.63;;
61200;SDS011;47065;52.898;6.992;2022-11-30T00:26:13;101.65;;;36.00;;
61200;SDS011;47065;52.898;6.992;2022-11-30T00:28:40;87.47;;;34.38;;
61200;SDS011;47065;52.898;6.992;2022-11-30T00:31:08;88.40;;;35.00;;
61200;SDS011;47065;52.898;6.992;2022-11-30T00:33:35;91.75;;;33.35;;
61200;SDS011;47065;52.898;6.992;2022-11-30T00:36:06;88.53;;;33.80;;
61200;SDS011;47065;52.898;6.992;2022-11-30T00:38:36;70.60;;;31.33;;
61200;SDS011;47065;52.898;6.992;2022-11-30T00:41:01;74.75;;;29.48;;
61200;SDS011;47065;52.898;6.992;2022-11-30T00:43:28;66.20;;;30.40;;
61200;SDS011;47065;52.898;6.992;2022-11-30T00:45:53;58.40;;;25.77;;
61200;SDS011;47065;52.898;6.992;2022-11-30T00:48:19;57.83;;;26.95;;
61200;SDS011;47065;52.898;6.992;2022-11-30T00:50:46;56.78;;;26.70;;
61200;SDS011;47065;52.898;6.992;2022-11-30T00:53:13;56.28;;;27.23;;
61200;SDS011;47065;52.898;6.992;2022-11-30T00:55:38;57.28;;;26.58;;
61200;SDS011;47065;52.898;6.992;2022-11-30T00:58:04;56.53;;;27.02;;
61200;SDS011;47065;52.898;6.992;2022-11-30T01:00:31;60.55;;;26.08;;
61200;SDS011;47065;52.898;6.992;2022-11-30T01:02:57;61.47;;;26.35;;
61200;SDS011;47065;52.898;6.992;2022-11-30T01:05:27;60.15;;;26.83;;
61200;SDS011;47065;52.898;6.992;2022-11-30T01:07:52;50.65;;;27.00;;
61200;SDS011;47065;52.898;6.992;2022-11-30T01:10:18;60.40;;;27.08;;
61200;SDS011;47065;52.898;6.992;2022-11-30T01:12:44;62.47;;;27.65;;
61200;SDS011;47065;52.898;6.992;2022-11-30T01:15:09;52.97;;;26.73;;
61200;SDS011;47065;52.898;6.992;2022-11-30T01:17:35;61.97;;;26.88;;
61200;SDS011;47065;52.898;6.992;2022-11-30T01:20:01;67.07;;;27.83;;
61200;SDS011;47065;52.898;6.992;2022-11-30T01:22:27;67.65;;;27.65;;
61200;SDS011;47065;52.898;6.992;2022-11-30T01:24:53;61.80;;;27.48;;
61200;SDS011;47065;52.898;6.992;2022-11-30T01:27:19;56.00;;;25.33;;
61200;SDS011;47065;52.898;6.992;2022-11-30T01:29:44;61.65;;;26.83;;
61200;SDS011;47065;52.898;6.992;2022-11-30T01:32:10;55.95;;;25.58;;
61200;SDS011;47065;52.898;6.992;2022-11-30T01:34:35;55.92;;;27.58;;
61200;SDS011;47065;52.898;6.992;2022-11-30T01:37:01;50.25;;;24.17;;
61200;SDS011;47065;52.898;6.992;2022-11-30T01:39:27;59.45;;;26.88;;
61200;SDS011;47065;52.898;6.992;2022-11-30T01:41:52;54.42;;;26.00;;
61200;SDS011;47065;52.898;6.992;2022-11-30T01:47:23;53.70;;;24.80;;
61200;SDS011;47065;52.898;6.992;2022-11-30T01:49:44;58.22;;;25.88;;
61200;SDS011;47065;52.898;6.992;2022-11-30T01:52:22;58.35;;;27.27;;
61200;SDS011;47065;52.898;6.992;2022-11-30T01:55:01;59.38;;;27.52;;
61200;SDS011;47065;52.898;6.992;2022-11-30T01:57:36;54.40;;;26.35;;
61200;SDS011;47065;52.898;6.992;2022-11-30T02:00:08;63.47;;;27.52;;
61200;SDS011;47065;52.898;6.992;2022-11-30T02:02:41;67.40;;;28.45;;
61200;SDS011;47065;52.898;6.992;2022-11-30T02:05:13;50.63;;;25.38;;
61200;SDS011;47065;52.898;6.992;2022-11-30T02:07:40;62.00;;;26.75;;
61200;SDS011;47065;52.898;6.992;2022-11-30T02:10:11;63.92;;;28.15;;
61200;SDS011;47065;52.898;6.992;2022-11-30T02:12:43;59.28;;;28.20;;
61200;SDS011;47065;52.898;6.992;2022-11-30T02:15:23;63.50;;;28.05;;
61200;SDS011;47065;52.898;6.992;2022-11-30T02:17:55;56.92;;;27.30;;
61200;SDS011;47065;52.898;6.992;2022-11-30T02:28:50;55.13;;;25.20;;
61200;SDS011;47065;52.898;6.992;2022-11-30T02:31:28;69.15;;;26.73;;
61200;SDS011;47065;52.898;6.992;2022-11-30T02:34:02;59.55;;;26.65;;
61200;SDS011;47065;52.898;6.992;2022-11-30T02:36:30;64.45;;;29.48;;
61200;SDS011;47065;52.898;6.992;2022-11-30T02:38:57;60.53;;;27.42;;
61200;SDS011;47065;52.898;6.992;2022-11-30T02:41:22;60.00;;;27.00;;
61200;SDS011;47065;52.898;6.992;2022-11-30T02:43:48;53.13;;;26.45;;
61200;SDS011;47065;52.898;6.992;2022-11-30T02:48:54;59.03;;;27.27;;
61200;SDS011;47065;52.898;6.992;2022-11-30T02:51:25;58.15;;;29.30;;
61200;SDS011;47065;52.898;6.992;2022-11-30T02:53:53;59.80;;;27.45;;
61200;SDS011;47065;52.898;6.992;2022-11-30T02:56:19;60.10;;;26.20;;
61200;SDS011;47065;52.898;6.992;2022-11-30T02:58:46;54.67;;;26.05;;
61200;SDS011;47065;52.898;6.992;2022-11-30T03:01:12;51.65;;;26.42;;
61200;SDS011;47065;52.898;6.992;2022-11-30T03:03:38;53.95;;;25.63;;
61200;SDS011;47065;52.898;6.992;2022-11-30T03:06:03;56.75;;;25.92;;
61200;SDS011;47065;52.898;6.992;2022-11-30T03:08:29;54.90;;;26.52;;
61200;SDS011;47065;52.898;6.992;2022-11-30T03:10:55;58.97;;;26.75;;
61200;SDS011;47065;52.898;6.992;2022-11-30T03:13:20;59.67;;;25.98;;
61200;SDS011;47065;52.898;6.992;2022-11-30T03:15:46;64.95;;;28.83;;
61200;SDS011;47065;52.898;6.992;2022-11-30T03:18:12;52.53;;;27.15;;
61200;SDS011;47065;52.898;6.992;2022-11-30T03:20:41;55.42;;;25.90;;
61200;SDS011;47065;52.898;6.992;2022-11-30T03:23:07;49.40;;;25.25;;
61200;SDS011;47065;52.898;6.992;2022-11-30T03:25:33;63.95;;;26.98;;
61200;SDS011;47065;52.898;6.992;2022-11-30T03:27:59;56.92;;;27.48;;
61200;SDS011;47065;52.898;6.992;2022-11-30T03:30:25;57.47;;;27.05;;
61200;SDS011;47065;52.898;6.992;2022-11-30T03:32:51;56.05;;;25.60;;
61200;SDS011;47065;52.898;6.992;2022-11-30T03:35:17;57.80;;;26.23;;
61200;SDS011;47065;52.898;6.992;2022-11-30T03:37:42;56.22;;;26.85;;
61200;SDS011;47065;52.898;6.992;2022-11-30T03:40:08;54.65;;;25.98;;
61200;SDS011;47065;52.898;6.992;2022-11-30T03:42:35;57.40;;;27.40;;
61200;SDS011;47065;52.898;6.992;2022-11-30T03:45:01;54.53;;;25.17;;
61200;SDS011;47065;52.898;6.992;2022-11-30T03:47:27;56.50;;;27.80;;
61200;SDS011;47065;52.898;6.992;2022-11-30T03:49:53;56.80;;;26.52;;
61200;SDS011;47065;52.898;6.992;2022-11-30T03:52:18;55.97;;;26.50;;
61200;SDS011;47065;52.898;6.992;2022-11-30T03:54:44;55.22;;;26.80;;
61200;SDS011;47065;52.898;6.992;2022-11-30T03:57:09;53.50;;;26.42;;
61200;SDS011;47065;52.898;6.992;2022-11-30T03:59:35;57.38;;;26.25;;
61200;SDS011;47065;52.898;6.992;2022-11-30T04:02:00;58.30;;;27.75;;
61200;SDS011;47065;52.898;6.992;2022-11-30T04:04:26;62.90;;;27.17;;
61200;SDS011;47065;52.898;6.992;2022-11-30T04:06:52;62.58;;;27.30;;
61200;SDS011;47065;52.898;6.992;2022-11-30T04:09:17;56.15;;;25.67;;
61200;SDS011;47065;52.898;6.992;2022-11-30T04:11:43;57.53;;;26.98;;
61200;SDS011;47065;52.898;6.992;2022-11-30T04:14:09;57.63;;;26.23;;
61200;SDS011;47065;52.898;6.992;2022-11-30T04:16:34;59.35;;;26.25;;
61200;SDS011;47065;52.898;6.992;2022-11-30T04:19:00;55.38;;;24.35;;
61200;SDS011;47065;52.898;6.992;2022-11-30T04:21:26;52.85;;;25.02;;
61200;SDS011;47065;52.898;6.992;2022-11-30T04:23:52;52.00;;;25.60;;
61200;SDS011;47065;52.898;6.992;2022-11-30T04:26:17;50.75;;;25.45;;
61200;SDS011;47065;52.898;6.992;2022-11-30T04:28:43;51.08;;;23.95;;
61200;SDS011;47065;52.898;6.992;2022-11-30T04:31:09;50.65;;;25.38;;
61200;SDS011;47065;52.898;6.992;2022-11-30T04:33:35;52.88;;;25.05;;
61200;SDS011;47065;52.898;6.992;2022-11-30T04:36:01;52.00;;;25.55;;
61200;SDS011;47065;52.898;6.992;2022-11-30T04:38:29;49.35;;;24.45;;
61200;SDS011;47065;52.898;6.992;2022-11-30T04:40:55;46.80;;;23.15;;
61200;SDS011;47065;52.898;6.992;2022-11-30T04:43:21;51.63;;;24.35;;
61200;SDS011;47065;52.898;6.992;2022-11-30T04:45:47;50.42;;;24.95;;
61200;SDS011;47065;52.898;6.992;2022-11-30T04:48:14;44.42;;;22.27;;
61200;SDS011;47065;52.898;6.992;2022-11-30T04:50:40;47.40;;;22.33;;
61200;SDS011;47065;52.898;6.992;2022-11-30T04:53:06;47.75;;;23.48;;
61200;SDS011;47065;52.898;6.992;2022-11-30T04:55:32;47.42;;;22.00;;
61200;SDS011;47065;52.898;6.992;2022-11-30T04:57:57;49.65;;;22.92;;
61200;SDS011;47065;52.898;6.992;2022-11-30T05:00:23;49.20;;;22.23;;
61200;SDS011;47065;52.898;6.992;2022-11-30T05:02:49;40.45;;;20.27;;
61200;SDS011;47065;52.898;6.992;2022-11-30T05:05:15;39.20;;;22.00;;
61200;SDS011;47065;52.898;6.992;2022-11-30T05:07:41;40.05;;;20.80;;
61200;SDS011;47065;52.898;6.992;2022-11-30T05:10:07;49.53;;;22.50;;
61200;SDS011;47065;52.898;6.992;2022-11-30T05:12:33;42.63;;;20.40;;
61200;SDS011;47065;52.898;6.992;2022-11-30T05:14:59;45.03;;;21.63;;
61200;SDS011;47065;52.898;6.992;2022-11-30T05:17:24;39.75;;;20.15;;
61200;SDS011;47065;52.898;6.992;2022-11-30T05:19:50;36.70;;;20.77;;
61200;SDS011;47065;52.898;6.992;2022-11-30T05:22:15;37.03;;;18.88;;
61200;SDS011;47065;52.898;6.992;2022-11-30T05:24:41;36.83;;;19.73;;
61200;SDS011;47065;52.898;6.992;2022-11-30T05:27:06;34.15;;;17.38;;
61200;SDS011;47065;52.898;6.992;2022-11-30T05:29:32;30.50;;;16.98;;
61200;SDS011;47065;52.898;6.992;2022-11-30T05:32:01;35.03;;;18.42;;
61200;SDS011;47065;52.898;6.992;2022-11-30T05:34:27;37.33;;;19.98;;
61200;SDS011;47065;52.898;6.992;2022-11-30T05:36:52;37.38;;;19.20;;
61200;SDS011;47065;52.898;6.992;2022-11-30T05:39:18;29.08;;;16.35;;
61200;SDS011;47065;52.898;6.992;2022-11-30T05:41:44;37.95;;;18.92;;
61200;SDS011;47065;52.898;6.992;2022-11-30T05:44:09;36.47;;;18.75;;
61200;SDS011;47065;52.898;6.992;2022-11-30T05:46:35;38.70;;;19.58;;
61200;SDS011;47065;52.898;6.992;2022-11-30T05:49:01;42.67;;;20.45;;
61200;SDS011;47065;52.898;6.992;2022-11-30T05:51:27;35.85;;;19.45;;
61200;SDS011;47065;52.898;6.992;2022-11-30T05:53:52;37.90;;;18.08;;
61200;SDS011;47065;52.898;6.992;2022-11-30T05:56:19;40.22;;;20.15;;
61200;SDS011;47065;52.898;6.992;2022-11-30T05:58:45;36.35;;;19.73;;
61200;SDS011;47065;52.898;6.992;2022-11-30T06:03:48;38.50;;;19.55;;
61200;SDS011;47065;52.898;6.992;2022-11-30T06:06:14;37.13;;;19.73;;
61200;SDS011;47065;52.898;6.992;2022-11-30T06:08:39;37.38;;;20.00;;
61200;SDS011;47065;52.898;6.992;2022-11-30T06:11:05;35.58;;;18.33;;
61200;SDS011;47065;52.898;6.992;2022-11-30T06:13:30;39.90;;;20.77;;
61200;SDS011;47065;52.898;6.992;2022-11-30T06:15:59;36.35;;;19.75;;
61200;SDS011;47065;52.898;6.992;2022-11-30T06:18:25;39.22;;;19.48;;
61200;SDS011;47065;52.898;6.992;2022-11-30T06:20:51;33.15;;;17.55;;
61200;SDS011;47065;52.898;6.992;2022-11-30T06:23:16;31.75;;;18.83;;
61200;SDS011;47065;52.898;6.992;2022-11-30T06:25:42;29.63;;;17.40;;
61200;SDS011;47065;52.898;6.992;2022-11-30T06:28:08;31.83;;;16.67;;
61200;SDS011;47065;52.898;6.992;2022-11-30T06:30:34;35.25;;;19.73;;
61200;SDS011;47065;52.898;6.992;2022-11-30T06:32:59;32.13;;;16.77;;
61200;SDS011;47065;52.898;6.992;2022-11-30T06:35:25;38.25;;;19.13;;
61200;SDS011;47065;52.898;6.992;2022-11-30T06:37:51;41.78;;;19.35;;
61200;SDS011;47065;52.898;6.992;2022-11-30T06:40:16;35.97;;;18.60;;
61200;SDS011;47065;52.898;6.992;2022-11-30T06:42:42;40.22;;;17.98;;
61200;SDS011;47065;52.898;6.992;2022-11-30T06:45:08;41.50;;;20.55;;
61200;SDS011;47065;52.898;6.992;2022-11-30T06:47:34;41.70;;;20.13;;
61200;SDS011;47065;52.898;6.992;2022-11-30T06:50:00;42.30;;;20.55;;
61200;SDS011;47065;52.898;6.992;2022-11-30T06:52:25;40.22;;;20.13;;
61200;SDS011;47065;52.898;6.992;2022-11-30T06:54:51;45.97;;;20.02;;
61200;SDS011;47065;52.898;6.992;2022-11-30T06:57:16;42.10;;;20.75;;
61200;SDS011;47065;52.898;6.992;2022-11-30T06:59:42;44.80;;;20.90;;
61200;SDS011;47065;52.898;6.992;2022-11-30T07:02:11;40.05;;;20.17;;
61200;SDS011;47065;52.898;6.992;2022-11-30T07:04:38;35.47;;;17.80;;
61200;SDS011;47065;52.898;6.992;2022-11-30T07:07:04;37.60;;;19.90;;
61200;SDS011;47065;52.898;6.992;2022-11-30T07:09:31;32.45;;;18.10;;
61200;SDS011;47065;52.898;6.992;2022-11-30T07:11:58;33.15;;;18.17;;
61200;SDS011;47065;52.898;6.992;2022-11-30T07:14:23;34.45;;;17.63;;
61200;SDS011;47065;52.898;6.992;2022-11-30T07:16:49;33.20;;;18.10;;
61200;SDS011;47065;52.898;6.992;2022-11-30T07:19:15;32.22;;;18.50;;
61200;SDS011;47065;52.898;6.992;2022-11-30T07:21:41;31.60;;;18.58;;
61200;SDS011;47065;52.898;6.992;2022-11-30T07:24:07;33.20;;;19.55;;
61200;SDS011;47065;52.898;6.992;2022-11-30T07:26:54;34.95;;;17.83;;
61200;SDS011;47065;52.898;6.992;2022-11-30T07:29:20;31.40;;;18.35;;
61200;SDS011;47065;52.898;6.992;2022-11-30T07:31:49;32.55;;;18.15;;
61200;SDS011;47065;52.898;6.992;2022-11-30T07:34:16;31.88;;;17.80;;
61200;SDS011;47065;52.898;6.992;2022-11-30T07:36:42;34.45;;;18.92;;
61200;SDS011;47065;52.898;6.992;2022-11-30T07:39:08;36.15;;;18.17;;
61200;SDS011;47065;52.898;6.992;2022-11-30T07:41:34;35.80;;;18.27;;
61200;SDS011;47065;52.898;6.992;2022-11-30T07:43:59;33.60;;;17.35;;
61200;SDS011;47065;52.898;6.992;2022-11-30T07:46:27;33.00;;;18.35;;
61200;SDS011;47065;52.898;6.992;2022-11-30T07:48:53;35.28;;;19.63;;
61200;SDS011;47065;52.898;6.992;2022-11-30T07:51:19;33.75;;;19.33;;
61200;SDS011;47065;52.898;6.992;2022-11-30T07:53:46;40.35;;;21.55;;
61200;SDS011;47065;52.898;6.992;2022-11-30T07:56:13;39.00;;;20.95;;
61200;SDS011;47065;52.898;6.992;2022-11-30T07:58:41;30.35;;;18.23;;
61200;SDS011;47065;52.898;6.992;2022-11-30T08:01:11;31.10;;;18.42;;
61200;SDS011;47065;52.898;6.992;2022-11-30T08:03:39;29.58;;;16.98;;
61200;SDS011;47065;52.898;6.992;2022-11-30T08:06:06;31.15;;;16.27;;
61200;SDS011;47065;52.898;6.992;2022-11-30T08:08:37;25.92;;;16.40;;
61200;SDS011;47065;52.898;6.992;2022-11-30T08:11:05;28.42;;;17.23;;
61200;SDS011;47065;52.898;6.992;2022-11-30T08:13:32;29.30;;;17.73;;
61200;SDS011;47065;52.898;6.992;2022-11-30T08:16:01;30.42;;;19.17;;
61200;SDS011;47065;52.898;6.992;2022-11-30T08:18:28;26.80;;;17.35;;
61200;SDS011;47065;52.898;6.992;2022-11-30T08:20:57;33.33;;;18.33;;
61200;SDS011;47065;52.898;6.992;2022-11-30T08:23:31;33.75;;;19.27;;
61200;SDS011;47065;52.898;6.992;2022-11-30T08:26:05;30.65;;;18.13;;
61200;SDS011;47065;52.898;6.992;2022-11-30T08:28:36;27.05;;;17.10;;
61200;SDS011;47065;52.898;6.992;2022-11-30T08:31:03;34.17;;;17.85;;
61200;SDS011;47065;52.898;6.992;2022-11-30T08:33:34;34.85;;;19.08;;
61200;SDS011;47065;52.898;6.992;2022-11-30T08:36:13;37.83;;;21.00;;
61200;SDS011;47065;52.898;6.992;2022-11-30T08:38:44;39.22;;;20.45;;
61200;SDS011;47065;52.898;6.992;2022-11-30T08:41:11;38.38;;;20.70;;
61200;SDS011;47065;52.898;6.992;2022-11-30T08:43:39;35.35;;;18.83;;
61200;SDS011;47065;52.898;6.992;2022-11-30T08:46:05;37.78;;;18.92;;
61200;SDS011;47065;52.898;6.992;2022-11-30T08:48:33;32.63;;;17.88;;
61200;SDS011;47065;52.898;6.992;2022-11-30T08:51:00;37.15;;;19.63;;
61200;SDS011;47065;52.898;6.992;2022-11-30T08:53:30;33.25;;;18.70;;
61200;SDS011;47065;52.898;6.992;2022-11-30T08:56:01;33.22;;;18.67;;
61200;SDS011;47065;52.898;6.992;2022-11-30T08:58:29;31.05;;;17.58;;
61200;SDS011;47065;52.898;6.992;2022-11-30T09:01:04;31.58;;;18.05;;
61200;SDS011;47065;52.898;6.992;2022-11-30T09:03:44;31.15;;;17.98;;
61200;SDS011;47065;52.898;6.992;2022-11-30T09:06:11;31.63;;;18.13;;
61200;SDS011;47065;52.898;6.992;2022-11-30T09:08:42;39.97;;;21.10;;
61200;SDS011;47065;52.898;6.992;2022-11-30T09:11:13;32.63;;;20.48;;
61200;SDS011;47065;52.898;6.992;2022-11-30T09:13:42;30.20;;;17.88;;
61200;SDS011;47065;52.898;6.992;2022-11-30T09:16:09;32.05;;;16.95;;
61200;SDS011;47065;52.898;6.992;2022-11-30T09:18:35;39.20;;;18.48;;
61200;SDS011;47065;52.898;6.992;2022-11-30T09:21:06;32.05;;;18.38;;
61200;SDS011;47065;52.898;6.992;2022-11-30T09:23:33;28.60;;;17.52;;
61200;SDS011;47065;52.898;6.992;2022-11-30T09:26:01;33.70;;;17.85;;
61200;SDS011;47065;52.898;6.992;2022-11-30T09:28:29;31.48;;;17.88;;
61200;SDS011;47065;52.898;6.992;2022-11-30T09:31:04;35.47;;;18.27;;
61200;SDS011;47065;52.898;6.992;2022-11-30T09:33:37;27.65;;;15.88;;
61200;SDS011;47065;52.898;6.992;2022-11-30T09:36:08;29.75;;;16.63;;
61200;SDS011;47065;52.898;6.992;2022-11-30T09:38:37;28.70;;;16.40;;
61200;SDS011;47065;52.898;6.992;2022-11-30T09:41:28;35.50;;;19.02;;
61200;SDS011;47065;52.898;6.992;2022-11-30T09:49:47;34.08;;;18.85;;
61200;SDS011;47065;52.898;6.992;2022-11-30T09:52:15;32.40;;;18.15;;
61200;SDS011;47065;52.898;6.992;2022-11-30T09:54:44;27.42;;;15.93;;
61200;SDS011;47065;52.898;6.992;2022-11-30T09:59:51;36.08;;;18.50;;
61200;SDS011;47065;52.898;6.992;2022-11-30T10:02:20;39.50;;;20.92;;
61200;SDS011;47065;52.898;6.992;2022-11-30T10:04:54;39.75;;;20.88;;
61200;SDS011;47065;52.898;6.992;2022-11-30T10:10:11;39.72;;;19.92;;
61200;SDS011;47065;52.898;6.992;2022-11-30T10:13:14;34.80;;;20.48;;
61200;SDS011;47065;52.898;6.992;2022-11-30T10:18:59;36.03;;;19.90;;
61200;SDS011;47065;52.898;6.992;2022-11-30T10:27:10;36.72;;;18.10;;
61200;SDS011;47065;52.898;6.992;2022-11-30T10:29:42;34.60;;;19.45;;
61200;SDS011;47065;52.898;6.992;2022-11-30T10:32:18;39.65;;;21.02;;
61200;SDS011;47065;52.898;6.992;2022-11-30T10:34:56;38.58;;;21.35;;
61200;SDS011;47065;52.898;6.992;2022-11-30T10:37:31;36.75;;;21.80;;
61200;SDS011;47065;52.898;6.992;2022-11-30T10:42:55;39.42;;;22.63;;
61200;SDS011;47065;52.898;6.992;2022-11-30T10:45:39;40.00;;;20.48;;
61200;SDS011;47065;52.898;6.992;2022-11-30T10:50:56;41.33;;;22.30;;
61200;SDS011;47065;52.898;6.992;2022-11-30T10:53:23;41.60;;;22.50;;
61200;SDS011;47065;52.898;6.992;2022-11-30T10:55:59;44.78;;;21.73;;
61200;SDS011;47065;52.898;6.992;2022-11-30T10:58:30;37.25;;;21.30;;
61200;SDS011;47065;52.898;6.992;2022-11-30T11:01:06;38.90;;;19.70;;
61200;SDS011;47065;52.898;6.992;2022-11-30T11:04:07;45.20;;;22.77;;
61200;SDS011;47065;52.898;6.992;2022-11-30T11:06:37;41.90;;;22.23;;
61200;SDS011;47065;52.898;6.992;2022-11-30T11:11:57;41.03;;;22.38;;
61200;SDS011;47065;52.898;6.992;2022-11-30T11:14:39;54.53;;;24.58;;
61200;SDS011;47065;52.898;6.992;2022-11-30T11:19:43;64.13;;;29.73;;
61200;SDS011;47065;52.898;6.992;2022-11-30T11:22:23;66.43;;;30.33;;
61200;SDS011;47065;52.898;6.992;2022-11-30T11:24:55;63.20;;;28.40;;
61200;SDS011;47065;52.898;6.992;2022-11-30T11:27:31;60.40;;;29.15;;
61200;SDS011;47065;52.898;6.992;2022-11-30T11:32:26;65.57;;;27.75;;
61200;SDS011;47065;52.898;6.992;2022-11-30T11:34:56;59.70;;;29.08;;
61200;SDS011;47065;52.898;6.992;2022-11-30T11:37:23;64.68;;;29.55;;
61200;SDS011;47065;52.898;6.992;2022-11-30T11:39:56;68.35;;;30.02;;
61200;SDS011;47065;52.898;6.992;2022-11-30T11:42:22;66.20;;;29.90;;
61200;SDS011;47065;52.898;6.992;2022-11-30T11:44:52;64.38;;;29.35;;
61200;SDS011;47065;52.898;6.992;2022-11-30T11:47:25;68.45;;;30.90;;
61200;SDS011;47065;52.898;6.992;2022-11-30T11:50:03;74.13;;;31.60;;
61200;SDS011;47065;52.898;6.992;2022-11-30T11:52:44;87.40;;;33.35;;
61200;SDS011;47065;52.898;6.992;2022-11-30T11:55:15;76.00;;;32.58;;
61200;SDS011;47065;52.898;6.992;2022-11-30T11:57:47;71.60;;;33.42;;
61200;SDS011;47065;52.898;6.992;2022-11-30T12:05:30;69.20;;;31.80;;
61200;SDS011;47065;52.898;6.992;2022-11-30T12:10:39;73.88;;;31.48;;
61200;SDS011;47065;52.898;6.992;2022-11-30T12:13:17;85.28;;;32.80;;
61200;SDS011;47065;52.898;6.992;2022-11-30T12:18:19;64.07;;;29.33;;
61200;SDS011;47065;52.898;6.992;2022-11-30T12:20:53;69.35;;;31.02;;
61200;SDS011;47065;52.898;6.992;2022-11-30T12:32:21;76.05;;;32.28;;
61200;SDS011;47065;52.898;6.992;2022-11-30T12:34:56;73.90;;;32.47;;
61200;SDS011;47065;52.898;6.992;2022-11-30T12:37:39;63.05;;;30.20;;
61200;SDS011;47065;52.898;6.992;2022-11-30T12:40:29;69.80;;;31.90;;
61200;SDS011;47065;52.898;6.992;2022-11-30T12:43:11;75.82;;;33.20;;
61200;SDS011;47065;52.898;6.992;2022-11-30T12:46:20;68.43;;;33.67;;
61200;SDS011;47065;52.898;6.992;2022-11-30T12:51:35;66.15;;;30.65;;
61200;SDS011;47065;52.898;6.992;2022-11-30T12:56:48;74.13;;;31.92;;
61200;SDS011;47065;52.898;6.992;2022-11-30T13:05:10;75.15;;;33.47;;
61200;SDS011;47065;52.898;6.992;2022-11-30T13:07:42;74.53;;;34.25;;
61200;SDS011;47065;52.898;6.992;2022-11-30T13:10:48;86.38;;;35.35;;
61200;SDS011;47065;52.898;6.992;2022-11-30T13:13:20;88.20;;;37.88;;
61200;SDS011;47065;52.898;6.992;2022-11-30T13:15:49;88.35;;;36.42;;
61200;SDS011;47065;52.898;6.992;2022-11-30T13:18:17;83.63;;;35.45;;
61200;SDS011;47065;52.898;6.992;2022-11-30T13:23:37;82.95;;;34.92;;
61200;SDS011;47065;52.898;6.992;2022-11-30T13:32:11;96.30;;;38.38;;
61200;SDS011;47065;52.898;6.992;2022-11-30T13:34:39;88.45;;;34.80;;
61200;SDS011;47065;52.898;6.992;2022-11-30T13:39:45;96.05;;;36.60;;
61200;SDS011;47065;52.898;6.992;2022-11-30T13:42:23;98.68;;;40.15;;
61200;SDS011;47065;52.898;6.992;2022-11-30T13:47:38;83.30;;;36.85;;
61200;SDS011;47065;52.898;6.992;2022-11-30T13:50:15;90.55;;;38.50;;
61200;SDS011;47065;52.898;6.992;2022-11-30T14:02:55;93.95;;;40.28;;
61200;SDS011;47065;52.898;6.992;2022-11-30T14:05:44;95.68;;;41.05;;
61200;SDS011;47065;52.898;6.992;2022-11-30T14:10:43;106.38;;;39.83;;
61200;SDS011;47065;52.898;6.992;2022-11-30T14:23:42;113.70;;;41.35;;
61200;SDS011;47065;52.898;6.992;2022-11-30T14:26:13;112.78;;;41.20;;
61200;SDS011;47065;52.898;6.992;2022-11-30T14:28:42;96.63;;;38.10;;
61200;SDS011;47065;52.898;6.992;2022-11-30T14:31:23;93.60;;;38.70;;
61200;SDS011;47065;52.898;6.992;2022-11-30T14:33:54;111.82;;;40.67;;
61200;SDS011;47065;52.898;6.992;2022-11-30T14:36:26;103.83;;;39.47;;
61200;SDS011;47065;52.898;6.992;2022-11-30T14:38:58;93.23;;;36.87;;
61200;SDS011;47065;52.898;6.992;2022-11-30T14:41:27;96.38;;;37.33;;
61200;SDS011;47065;52.898;6.992;2022-11-30T14:46:37;105.07;;;41.10;;
61200;SDS011;47065;52.898;6.992;2022-11-30T14:49:13;99.43;;;40.03;;
61200;SDS011;47065;52.898;6.992;2022-11-30T14:51:41;88.45;;;36.63;;
61200;SDS011;47065;52.898;6.992;2022-11-30T14:56:47;90.40;;;37.28;;
61200;SDS011;47065;52.898;6.992;2022-11-30T14:59:34;94.15;;;37.42;;
61200;SDS011;47065;52.898;6.992;2022-11-30T15:02:05;93.28;;;39.03;;
61200;SDS011;47065;52.898;6.992;2022-11-30T15:04:43;94.47;;;37.97;;
61200;SDS011;47065;52.898;6.992;2022-11-30T15:07:11;98.55;;;38.28;;
61200;SDS011;47065;52.898;6.992;2022-11-30T15:09:39;90.05;;;37.13;;
61200;SDS011;47065;52.898;6.992;2022-11-30T15:12:08;99.80;;;37.60;;
61200;SDS011;47065;52.898;6.992;2022-11-30T15:14:34;96.35;;;39.00;;
61200;SDS011;47065;52.898;6.992;2022-11-30T15:17:00;93.00;;;37.53;;
61200;SDS011;47065;52.898;6.992;2022-11-30T15:19:26;93.20;;;38.00;;
61200;SDS011;47065;52.898;6.992;2022-11-30T15:21:54;90.47;;;35.45;;
61200;SDS011;47065;52.898;6.992;2022-11-30T15:24:21;81.03;;;34.22;;
61200;SDS011;47065;52.898;6.992;2022-11-30T15:27:00;85.90;;;36.85;;
61200;SDS011;47065;52.898;6.992;2022-11-30T15:29:33;77.68;;;35.10;;
61200;SDS011;47065;52.898;6.992;2022-11-30T15:32:13;90.38;;;37.78;;
61200;SDS011;47065;52.898;6.992;2022-11-30T15:34:48;99.23;;;37.73;;
61200;SDS011;47065;52.898;6.992;2022-11-30T15:37:15;84.40;;;37.80;;
61200;SDS011;47065;52.898;6.992;2022-11-30T15:39:48;88.07;;;37.22;;
61200;SDS011;47065;52.898;6.992;2022-11-30T15:42:18;90.72;;;36.00;;
61200;SDS011;47065;52.898;6.992;2022-11-30T15:44:50;83.97;;;35.90;;
61200;SDS011;47065;52.898;6.992;2022-11-30T15:47:24;93.68;;;35.45;;
61200;SDS011;47065;52.898;6.992;2022-11-30T15:49:55;88.97;;;36.88;;
61200;SDS011;47065;52.898;6.992;2022-11-30T15:52:25;84.53;;;34.78;;
61200;SDS011;47065;52.898;6.992;2022-11-30T15:54:53;93.43;;;37.90;;
61200;SDS011;47065;52.898;6.992;2022-11-30T15:57:21;84.38;;;36.22;;
61200;SDS011;47065;52.898;6.992;2022-11-30T16:00:08;82.88;;;34.75;;
61200;SDS011;47065;52.898;6.992;2022-11-30T16:02:44;77.93;;;36.38;;
61200;SDS011;47065;52.898;6.992;2022-11-30T16:07:49;94.22;;;38.53;;
61200;SDS011;47065;52.898;6.992;2022-11-30T16:10:23;79.65;;;34.53;;
61200;SDS011;47065;52.898;6.992;2022-11-30T16:12:51;97.13;;;38.45;;
61200;SDS011;47065;52.898;6.992;2022-11-30T16:15:19;80.95;;;34.70;;
61200;SDS011;47065;52.898;6.992;2022-11-30T16:17:54;82.78;;;33.47;;
61200;SDS011;47065;52.898;6.992;2022-11-30T16:20:24;81.60;;;33.55;;
61200;SDS011;47065;52.898;6.992;2022-11-30T16:22:50;83.35;;;35.65;;
61200;SDS011;47065;52.898;6.992;2022-11-30T16:25:20;77.70;;;34.20;;
61200;SDS011;47065;52.898;6.992;2022-11-30T16:27:47;84.03;;;36.05;;
61200;SDS011;47065;52.898;6.992;2022-11-30T16:30:14;90.85;;;34.78;;
61200;SDS011;47065;52.898;6.992;2022-11-30T16:32:41;90.00;;;38.33;;
61200;SDS011;47065;52.898;6.992;2022-11-30T16:35:23;93.18;;;37.92;;
61200;SDS011;47065;52.898;6.992;2022-11-30T16:37:54;96.15;;;36.63;;
61200;SDS011;47065;52.898;6.992;2022-11-30T16:40:19;90.63;;;36.78;;